Flight Track Log - Related Links

Times and Time Zones

All times are in EDT time to prevent confusion due to time zone crossing. See the CFS820 flight status page for this flight to view local times or setup timezone preferences in your user account.

Time Position Orientation Groundspeed Altitude Reporting Facility
EDT Latitude Longitude Course Direction KTS MPH feet Rate Location/Type
Fri 08:44:49 PM 46.9256 -114.1103 75° East 120 138 4,400  Level Salt Lake Center
Fri 08:45:51 PM 46.9192 -114.1578 259° West 152 175 5,700 1,065 Climbing Salt Lake Center
Fri 08:46:53 PM 46.8953 -114.1089 126° Southeast 185 213 6,600 1,161 Climbing Salt Lake Center
Fri 08:47:55 PM 46.9172 -114.0361 66° East 186 214 8,100 1,403 Climbing Salt Lake Center
Fri 08:48:57 PM 46.9358 -113.9600 70° East 186 214 9,500 1,366 Climbing Salt Lake Center
Fri 08:49:58 PM 46.9522 -113.8842 72° East 193 222 10,900 1,415 Climbing Salt Lake Center
Fri 08:50:00 PM 47.0336 -113.5563 75° East  Level Estimated
Fri 08:51:00 PM 46.9669 -113.8122 73° East 187 215 12,400  Level Salt Lake Center
Fri 08:52:02 PM 46.9825 -113.7361 73° East 182 209 13,700 1,065 Climbing Salt Lake Center
Fri 08:53:04 PM 46.9972 -113.6697 72° East 181 208 14,600 629 Climbing Salt Lake Center
Fri 08:54:06 PM 47.0119 -113.5942 74° East 192 221 15,000 194 Climbing Salt Lake Center
Fri 08:55:08 PM 47.0308 -113.5078 72° East 220 253 15,000  Level Salt Lake Center
Fri 08:56:10 PM 47.0500 -113.4158 73° East 235 270 15,000  Level Salt Lake Center
Fri 08:57:12 PM 47.0733 -113.3081 72° East 232 267 15,000  Level Salt Lake Center
Fri 08:58:13 PM 47.0922 -113.2189 73° East 230 265 15,000  Level Salt Lake Center
Fri 08:59:15 PM 47.1106 -113.1281 73° East 232 267 15,000  Level Salt Lake Center
Fri 09:00:17 PM 47.1308 -113.0356 72° East 237 273 15,000  Level Salt Lake Center
Fri 09:01:19 PM 47.1500 -112.9447 73° East 235 270 15,000  Level Salt Lake Center
Fri 09:02:20 PM 47.1692 -112.8458 74° East 234 269 15,000  Level Salt Lake Center
Fri 09:03:22 PM 47.1886 -112.7553 72° East 233 268 15,000  Level Salt Lake Center
Fri 09:04:24 PM 47.2067 -112.6619 74° East 236 272 15,000  Level Salt Lake Center
Fri 09:05:26 PM 47.2244 -112.5711 74° East 235 270 15,000  Level Salt Lake Center
Fri 09:06:27 PM 47.2422 -112.4797 74° East 233 268 15,000  Level Salt Lake Center
Fri 09:07:29 PM 47.2644 -112.3694 73° East 234 269 15,000 -97 Level Salt Lake Center
Fri 09:08:31 PM 47.2831 -112.2786 73° East 233 268 14,800 -341 Descending Salt Lake Center
Fri 09:09:32 PM 47.3014 -112.1861 74° East 236 272 14,300 -585 Descending Salt Lake Center
Fri 09:10:34 PM 47.3194 -112.0925 74° East 237 273 13,600 -871 Descending Salt Lake Center
Fri 09:11:36 PM 47.3389 -111.9939 74° East 244 281 12,500 -1,073 Descending Salt Lake Center
Fri 09:12:37 PM 47.3592 -111.8900 74° East 253 291 11,400 -1,073 Descending Salt Lake Center
Fri 09:13:39 PM 47.4008 -111.8075 53° Northeast 257 296 10,300 -1,171 Descending Salt Lake Center
Fri 09:14:40 PM 47.4231 -111.7039 72° East 266 306 9,000 -1,171 Descending Salt Lake Center
Fri 09:15:42 PM 47.3781 -111.6325 133° Southeast 251 289 7,900 -1,065 Descending Salt Lake Center
Fri 09:16:44 PM 47.3600 -111.5583 110° East 233 268 6,800 -1,073 Descending Salt Lake Center
Fri 09:17:45 PM 47.3939 -111.4950 52° Northeast 213 245 5,700 -976 Descending Salt Lake Center
Fri 09:18:47 PM 47.4286 -111.4450 44° Northeast 195 224 4,800 -774 Descending Salt Lake Center
Fri 09:19:49 PM 47.4522 -111.4103 45° Northeast 152 175 4,100 -585 Descending Salt Lake Center
Fri 09:20:50 PM 47.4722 -111.3800 46° Northeast 123 142 3,600 -492 Descending Salt Lake Center
Fri 09:22:00 PM 47.4667 -111.3667 90° East  Level FlightAware Approximate

Login

Don't have an account? Register now (free) for customized features, flight alerts, and more!